createdAt,value
2022-11-28T00:02:17.241Z,5.80
2022-11-28T00:04:46.855Z,5.82
2022-11-28T00:07:16.515Z,5.35
2022-11-28T00:09:46.313Z,5.72
2022-11-28T00:12:15.905Z,9.65
2022-11-28T00:14:45.487Z,7.45
2022-11-28T00:17:15.216Z,5.45
2022-11-28T00:19:44.818Z,7.28
2022-11-28T00:22:14.594Z,6.47
2022-11-28T00:24:44.480Z,7.78
2022-11-28T00:27:14.223Z,5.63
2022-11-28T00:29:43.830Z,8.15
2022-11-28T00:32:13.446Z,8.57
2022-11-28T00:34:43.253Z,5.45
2022-11-28T00:37:13.027Z,4.35
2022-11-28T00:39:42.584Z,3.92
2022-11-28T00:42:12.826Z,4.47
2022-11-28T00:44:43.361Z,8.00
2022-11-28T00:47:13.207Z,4.80
2022-11-28T00:49:43.016Z,6.20
2022-11-28T00:52:12.637Z,6.15
2022-11-28T00:54:42.496Z,8.15
2022-11-28T00:57:12.130Z,3.72
2022-11-28T00:59:41.759Z,6.25
2022-11-28T01:02:11.330Z,14.77
2022-11-28T01:04:41.284Z,4.82
2022-11-28T01:07:11.003Z,4.10
2022-11-28T01:09:40.650Z,5.07
2022-11-28T01:12:10.298Z,6.15
2022-11-28T01:14:40.112Z,3.50
2022-11-28T01:17:10.781Z,6.35
2022-11-28T01:19:40.365Z,7.93
2022-11-28T01:22:10.185Z,4.38
2022-11-28T01:24:39.885Z,5.22
2022-11-28T01:27:09.899Z,5.85
2022-11-28T01:29:39.416Z,11.68
2022-11-28T01:32:09.089Z,5.20
2022-11-28T01:34:38.889Z,6.10
2022-11-28T01:37:08.517Z,4.05
2022-11-28T01:39:38.902Z,5.75
2022-11-28T01:42:08.533Z,3.65
2022-11-28T01:45:03.870Z,5.07
2022-11-28T01:47:34.438Z,9.40
2022-11-28T01:50:06.235Z,10.13
2022-11-28T01:52:38.665Z,4.28
2022-11-28T01:55:09.882Z,4.93
2022-11-28T01:57:39.844Z,6.28
2022-11-28T02:00:15.674Z,7.15
2022-11-28T02:03:00.066Z,6.97
2022-11-28T02:05:30.000Z,5.15
2022-11-28T02:07:59.986Z,9.70
2022-11-28T02:10:37.243Z,3.58
2022-11-28T02:13:45.978Z,3.47
2022-11-28T02:16:47.463Z,4.13
2022-11-28T02:19:56.212Z,3.90
2022-11-28T02:22:46.907Z,15.68
2022-11-28T02:25:47.889Z,6.95
2022-11-28T02:28:56.657Z,3.53
2022-11-28T02:32:01.145Z,4.18
2022-11-28T02:34:57.372Z,3.97
2022-11-28T02:37:56.446Z,7.82
2022-11-28T02:40:49.411Z,6.82
2022-11-28T02:44:02.710Z,3.75
2022-11-28T02:46:46.485Z,3.33
2022-11-28T02:49:47.025Z,6.90
2022-11-28T02:52:21.673Z,5.80
2022-11-28T02:54:53.365Z,4.80
2022-11-28T02:57:23.328Z,7.18
2022-11-28T02:59:53.650Z,5.00
2022-11-28T03:02:30.630Z,5.78
2022-11-28T03:05:26.934Z,5.78
2022-11-28T03:08:30.953Z,5.03
2022-11-28T03:11:31.566Z,3.72
2022-11-28T03:14:29.101Z,4.28
2022-11-28T03:17:17.673Z,5.00
2022-11-28T03:20:13.541Z,10.38
2022-11-28T03:23:10.452Z,3.70
2022-11-28T03:26:06.560Z,5.90
2022-11-28T03:29:04.002Z,5.97
2022-11-28T03:31:41.713Z,4.90
2022-11-28T03:34:15.558Z,5.00
2022-11-28T03:36:54.225Z,3.03
2022-11-28T03:39:32.149Z,4.72
2022-11-28T03:45:16.855Z,4.68
2022-11-28T03:47:55.896Z,5.07
2022-11-28T03:50:38.166Z,4.25
2022-11-28T03:53:16.810Z,4.68
2022-11-28T03:56:25.622Z,3.20
2022-11-28T03:59:08.860Z,7.65
2022-11-28T04:02:10.303Z,3.20
2022-11-28T04:04:53.369Z,5.25
2022-11-28T04:07:52.682Z,4.85
2022-11-28T04:10:40.335Z,3.92
2022-11-28T04:13:34.543Z,4.00
2022-11-28T04:16:27.229Z,3.20
2022-11-28T04:19:34.349Z,4.20
2022-11-28T04:22:16.415Z,3.22
2022-11-28T04:24:57.352Z,8.52
2022-11-28T04:27:33.666Z,5.28
2022-11-28T04:30:05.128Z,5.25
2022-11-28T04:32:38.374Z,6.20
2022-11-28T04:35:15.697Z,7.30
2022-11-28T04:37:50.417Z,3.80
2022-11-28T04:40:23.065Z,8.13
2022-11-28T04:42:58.055Z,5.20
2022-11-28T04:45:36.912Z,7.20
2022-11-28T04:48:07.241Z,6.53
2022-11-28T04:51:16.044Z,3.05
2022-11-28T04:53:54.386Z,3.30
2022-11-28T04:56:30.423Z,5.82
2022-11-28T04:59:01.606Z,6.85
2022-11-28T05:01:34.977Z,4.57
2022-11-28T05:04:05.210Z,3.97
2022-11-28T05:06:39.043Z,3.05
2022-11-28T05:09:08.730Z,3.65
2022-11-28T05:11:38.399Z,5.50
2022-11-28T05:14:08.724Z,3.85
2022-11-28T05:16:38.358Z,2.55
2022-11-28T05:19:07.943Z,4.30
2022-11-28T05:21:37.522Z,3.78
2022-11-28T05:24:07.482Z,6.53
2022-11-28T05:26:37.368Z,3.63
2022-11-28T05:29:07.918Z,5.65
2022-11-28T05:31:37.811Z,5.65
2022-11-28T05:34:07.449Z,6.15
2022-11-28T05:36:37.015Z,3.95
2022-11-28T05:39:07.028Z,3.17
2022-11-28T05:41:37.096Z,4.63
2022-11-28T05:44:06.938Z,3.65
2022-11-28T05:46:36.541Z,6.13
2022-11-28T05:49:08.990Z,7.60
2022-11-28T05:51:38.568Z,6.70
2022-11-28T05:54:08.995Z,3.83
2022-11-28T05:56:42.387Z,4.63
2022-11-28T05:59:12.297Z,4.80
2022-11-28T06:01:42.318Z,4.60
2022-11-28T06:04:11.973Z,6.05
2022-11-28T06:06:41.545Z,3.72
2022-11-28T06:09:11.289Z,6.50
2022-11-28T06:11:40.962Z,7.63
2022-11-28T06:14:11.973Z,5.25
2022-11-28T06:16:43.328Z,3.28
2022-11-28T06:19:14.648Z,3.50
2022-11-28T06:21:44.755Z,5.97
2022-11-28T06:24:14.717Z,3.92
2022-11-28T06:26:44.696Z,3.72
2022-11-28T06:29:14.612Z,3.45
2022-11-28T06:31:44.588Z,4.18
2022-11-28T06:34:15.102Z,10.48
2022-11-28T06:36:46.955Z,3.13
2022-11-28T06:39:18.506Z,6.75
2022-11-28T06:41:48.814Z,5.13
2022-11-28T06:44:19.293Z,4.05
2022-11-28T06:46:49.315Z,3.63
2022-11-28T06:49:19.315Z,6.97
2022-11-28T06:51:49.175Z,7.53
2022-11-28T06:54:19.082Z,5.97
2022-11-28T06:56:48.967Z,6.82
2022-11-28T06:59:18.884Z,5.03
2022-11-28T07:01:48.896Z,3.05
2022-11-28T07:04:18.852Z,4.03
2022-11-28T07:06:48.758Z,2.50
2022-11-28T07:09:18.702Z,4.72
2022-11-28T07:11:48.457Z,4.07
2022-11-28T07:14:18.036Z,4.70
2022-11-28T07:16:49.122Z,4.28
2022-11-28T07:19:24.425Z,2.58
2022-11-28T07:21:54.081Z,4.60
2022-11-28T07:24:23.706Z,3.85
2022-11-28T07:26:53.290Z,3.20
2022-11-28T07:29:23.098Z,3.50
2022-11-28T07:31:53.116Z,3.10
2022-11-28T07:34:22.796Z,5.53
2022-11-28T07:36:52.407Z,5.65
2022-11-28T07:39:21.985Z,5.57
2022-11-28T07:41:52.912Z,3.22
2022-11-28T07:44:22.820Z,2.53
2022-11-28T07:46:52.903Z,8.75
2022-11-28T07:49:22.818Z,4.75
2022-11-28T07:51:52.760Z,3.15
2022-11-28T07:54:23.055Z,3.90
2022-11-28T07:59:43.067Z,2.72
2022-11-28T08:02:14.445Z,9.70
2022-11-28T08:04:49.549Z,9.55
2022-11-28T08:07:21.624Z,4.28
2022-11-28T08:09:51.719Z,5.68
2022-11-28T08:12:21.388Z,7.03
2022-11-28T08:14:51.155Z,3.35
2022-11-28T08:17:20.907Z,12.88
2022-11-28T08:19:50.534Z,3.83
2022-11-28T08:22:20.044Z,3.70
2022-11-28T08:24:49.737Z,4.60
2022-11-28T08:27:19.325Z,2.58
2022-11-28T08:29:52.047Z,5.13
2022-11-28T08:32:23.507Z,5.35
2022-11-28T08:34:53.020Z,4.63
2022-11-28T08:37:22.608Z,3.10
2022-11-28T08:39:52.232Z,3.10
2022-11-28T08:42:22.931Z,3.30
2022-11-28T08:44:52.911Z,2.55
2022-11-28T08:47:22.554Z,3.15
2022-11-28T08:49:52.075Z,8.63
2022-11-28T08:52:21.636Z,4.65
2022-11-28T08:54:51.185Z,6.65
2022-11-28T08:57:20.769Z,3.00
2022-11-28T08:59:50.351Z,3.53
2022-11-28T09:02:24.497Z,4.10
2022-11-28T09:04:55.428Z,8.18
2022-11-28T09:07:25.091Z,9.77
2022-11-28T09:09:54.672Z,5.32
2022-11-28T09:12:24.657Z,17.63
2022-11-28T09:14:54.621Z,20.95
2022-11-28T09:17:24.679Z,9.02
2022-11-28T09:19:54.519Z,8.15
2022-11-28T09:22:24.296Z,8.30
2022-11-28T09:24:54.228Z,8.93
2022-11-28T09:27:24.094Z,6.68
2022-11-28T09:29:54.014Z,12.70
2022-11-28T09:32:23.936Z,6.30
2022-11-28T09:34:53.875Z,4.57
2022-11-28T09:37:23.743Z,5.68
2022-11-28T09:40:12.780Z,4.60
2022-11-28T09:42:46.157Z,9.38
2022-11-28T09:45:26.327Z,6.40
2022-11-28T09:48:15.065Z,21.40
2022-11-28T09:50:46.279Z,11.52
2022-11-28T09:53:45.990Z,11.02
2022-11-28T09:56:21.862Z,14.02
2022-11-28T09:59:04.550Z,17.85
2022-11-28T10:02:07.732Z,16.52
2022-11-28T10:05:14.219Z,12.35
2022-11-28T10:08:02.608Z,13.57
2022-11-28T10:11:00.099Z,11.43
2022-11-28T10:14:10.184Z,10.02
2022-11-28T10:17:00.769Z,8.18
2022-11-28T10:19:56.148Z,8.70
2022-11-28T10:22:38.751Z,11.82
2022-11-28T10:25:26.509Z,9.85
2022-11-28T10:30:28.471Z,8.75
2022-11-28T10:33:29.626Z,10.65
2022-11-28T10:36:02.482Z,5.80
2022-11-28T10:38:35.929Z,8.50
2022-11-28T10:41:36.502Z,8.40
2022-11-28T10:44:21.453Z,7.03
2022-11-28T10:47:18.891Z,7.95
2022-11-28T10:50:18.780Z,12.55
2022-11-28T10:53:03.322Z,11.77
2022-11-28T10:56:12.174Z,12.05
2022-11-28T10:59:06.278Z,12.23
2022-11-28T11:01:42.103Z,8.60
2022-11-28T11:04:23.067Z,10.43
2022-11-28T11:07:27.935Z,5.78
2022-11-28T11:10:25.253Z,21.40
2022-11-28T11:12:55.274Z,8.95
2022-11-28T11:15:35.140Z,9.48
2022-11-28T11:18:22.815Z,7.47
2022-11-28T11:20:52.883Z,8.70
2022-11-28T11:23:24.957Z,15.88
2022-11-28T11:25:59.978Z,10.73
2022-11-28T11:28:47.281Z,10.48
2022-11-28T11:31:30.320Z,17.55
2022-11-28T11:34:19.889Z,6.55
2022-11-28T11:36:50.680Z,8.82
2022-11-28T11:39:29.605Z,9.23
2022-11-28T11:42:23.357Z,7.68
2022-11-28T11:44:53.928Z,17.70
2022-11-28T11:47:43.854Z,9.63
2022-11-28T11:50:23.773Z,12.77
2022-11-28T11:53:15.700Z,12.35
2022-11-28T11:55:54.462Z,16.98
2022-11-28T11:58:49.188Z,14.25
2022-11-28T12:01:21.808Z,10.00
2022-11-28T12:03:59.023Z,19.73
2022-11-28T12:06:36.248Z,29.33
2022-11-28T12:09:30.348Z,17.80
2022-11-28T12:12:20.522Z,6.35
2022-11-28T12:14:51.978Z,21.48
2022-11-28T12:17:54.505Z,14.70
2022-11-28T12:21:06.351Z,13.57
2022-11-28T12:24:06.331Z,10.20
2022-11-28T12:27:01.884Z,18.55
2022-11-28T12:29:55.251Z,24.00
2022-11-28T12:33:03.935Z,13.73
2022-11-28T12:36:03.385Z,10.38
2022-11-28T12:39:00.017Z,11.18
2022-11-28T12:42:11.067Z,7.70
2022-11-28T12:45:07.840Z,9.38
2022-11-28T12:48:08.237Z,8.93
2022-11-28T12:50:45.779Z,12.20
2022-11-28T12:53:54.732Z,14.90
2022-11-28T12:56:51.099Z,16.13
2022-11-28T12:59:44.571Z,11.38
2022-11-28T13:02:53.605Z,12.82
2022-11-28T13:05:41.017Z,9.98
2022-11-28T13:08:49.807Z,12.02
2022-11-28T13:11:57.648Z,12.45
2022-11-28T13:14:54.650Z,12.25
2022-11-28T13:17:47.633Z,16.50
2022-11-28T13:20:30.201Z,13.23
2022-11-28T13:23:38.560Z,11.13
2022-11-28T13:26:31.644Z,15.75
2022-11-28T13:29:24.423Z,9.38
2022-11-28T13:32:20.904Z,16.13
2022-11-28T13:34:51.709Z,10.90
2022-11-28T13:40:50.316Z,11.65
2022-11-28T13:43:54.193Z,8.77
2022-11-28T13:46:24.880Z,14.18
2022-11-28T13:49:20.221Z,18.95
2022-11-28T13:51:50.990Z,12.73
2022-11-28T13:54:43.832Z,12.93
2022-11-28T13:57:24.366Z,16.75
2022-11-28T14:00:02.006Z,12.85
2022-11-28T14:02:48.430Z,15.10
2022-11-28T14:05:41.688Z,19.73
2022-11-28T14:08:27.838Z,8.50
2022-11-28T14:11:25.993Z,10.88
2022-11-28T14:14:36.700Z,12.43
2022-11-28T14:17:45.406Z,6.45
2022-11-28T14:20:42.192Z,11.98
2022-11-28T14:23:42.978Z,15.95
2022-11-28T14:26:36.903Z,9.60
2022-11-28T14:29:09.337Z,13.27
2022-11-28T14:31:55.197Z,12.48
2022-11-28T14:34:51.034Z,14.80
2022-11-28T14:37:59.490Z,27.92
2022-11-28T14:41:13.478Z,13.68
2022-11-28T14:43:50.404Z,15.93
2022-11-28T14:46:24.323Z,11.35
2022-11-28T14:49:18.722Z,13.95
2022-11-28T14:52:36.943Z,11.88
2022-11-28T14:54:59.795Z,16.35
2022-11-28T14:57:36.835Z,15.55
2022-11-28T15:00:15.348Z,27.85
2022-11-28T15:03:24.391Z,18.13
2022-11-28T15:06:07.463Z,26.60
2022-11-28T15:09:16.136Z,20.08
2022-11-28T15:12:24.931Z,21.73
2022-11-28T15:14:59.494Z,13.73
2022-11-28T15:17:34.988Z,22.92
2022-11-28T15:20:16.246Z,15.68
2022-11-28T15:22:47.243Z,34.53
2022-11-28T15:25:25.216Z,17.90
2022-11-28T15:30:28.114Z,21.67
2022-11-28T15:33:02.220Z,15.18
2022-11-28T15:35:32.639Z,12.98
2022-11-28T15:38:02.335Z,12.73
2022-11-28T15:40:35.646Z,18.38
2022-11-28T15:43:12.699Z,23.33
2022-11-28T15:45:46.236Z,16.58
2022-11-28T15:48:40.459Z,28.45
2022-11-28T15:51:24.054Z,17.95
2022-11-28T15:53:54.098Z,21.05
2022-11-28T15:56:24.399Z,23.42
2022-11-28T15:58:56.488Z,20.85
2022-11-28T16:01:28.700Z,24.95
2022-11-28T16:04:16.976Z,32.00
2022-11-28T16:06:53.672Z,25.38
2022-11-28T16:09:36.892Z,23.83
2022-11-28T16:12:15.730Z,22.05
2022-11-28T16:14:47.082Z,19.90
2022-11-28T16:17:24.586Z,22.90
2022-11-28T16:19:56.443Z,20.52
2022-11-28T16:22:38.370Z,25.48
2022-11-28T16:25:22.548Z,18.10
2022-11-28T16:27:55.019Z,20.25
2022-11-28T16:30:45.283Z,12.18
2022-11-28T16:33:39.716Z,12.50
2022-11-28T16:36:35.681Z,15.13
2022-11-28T16:39:18.703Z,13.45
2022-11-28T16:41:56.401Z,12.63
2022-11-28T16:44:30.277Z,16.75
2022-11-28T16:47:01.280Z,17.92
2022-11-28T16:49:37.505Z,13.88
2022-11-28T16:52:47.320Z,18.13
2022-11-28T16:55:40.889Z,8.68
2022-11-28T16:58:22.323Z,15.52
2022-11-28T17:01:02.893Z,14.65
2022-11-28T17:03:53.207Z,15.02
2022-11-28T17:06:30.542Z,10.48
2022-11-28T17:09:00.201Z,16.17
2022-11-28T17:11:34.456Z,12.85
2022-11-28T17:14:10.129Z,14.43
2022-11-28T17:16:44.213Z,14.20
2022-11-28T17:19:14.544Z,10.63
2022-11-28T17:21:48.872Z,12.43
2022-11-28T17:24:31.551Z,18.42
2022-11-28T17:27:01.327Z,12.63
2022-11-28T17:29:31.164Z,14.93
2022-11-28T17:32:01.151Z,10.77
2022-11-28T17:34:33.972Z,15.77
2022-11-28T17:37:04.799Z,11.43
2022-11-28T17:39:34.435Z,14.65
2022-11-28T17:42:04.247Z,15.15
2022-11-28T17:44:36.786Z,19.48
2022-11-28T17:47:07.544Z,8.10
2022-11-28T17:49:39.590Z,13.48
2022-11-28T17:52:12.367Z,14.05
2022-11-28T17:54:42.329Z,15.25
2022-11-28T17:57:12.374Z,12.10
2022-11-28T17:59:42.699Z,10.70
2022-11-28T18:02:13.973Z,12.10
2022-11-28T18:04:43.937Z,13.52
2022-11-28T18:07:13.780Z,16.48
2022-11-28T18:09:44.117Z,14.07
2022-11-28T18:12:14.216Z,18.45
2022-11-28T18:14:44.161Z,14.10
2022-11-28T18:17:13.751Z,19.48
2022-11-28T18:19:43.662Z,10.27
2022-11-28T18:22:13.674Z,11.02
2022-11-28T18:24:43.533Z,16.08
2022-11-28T18:27:13.387Z,16.58
2022-11-28T18:29:43.557Z,12.98
2022-11-28T18:32:13.719Z,12.27
2022-11-28T18:34:43.693Z,23.30
2022-11-28T18:37:13.521Z,12.57
2022-11-28T18:39:43.736Z,13.80
2022-11-28T18:42:14.744Z,7.85
2022-11-28T18:44:44.370Z,12.98
2022-11-28T18:47:14.145Z,13.48
2022-11-28T18:49:44.058Z,9.52
2022-11-28T18:52:14.080Z,6.57
2022-11-28T18:54:44.427Z,21.40
2022-11-28T18:57:14.371Z,16.73
2022-11-28T18:59:51.387Z,12.98
2022-11-28T19:02:24.217Z,7.13
2022-11-28T19:04:53.886Z,8.23
2022-11-28T19:07:24.118Z,6.97
2022-11-28T19:09:53.892Z,8.23
2022-11-28T19:12:23.487Z,11.27
2022-11-28T19:14:58.714Z,22.10
2022-11-28T19:17:31.420Z,12.93
2022-11-28T19:20:01.157Z,19.67
2022-11-28T19:22:30.767Z,13.85
2022-11-28T19:25:00.396Z,13.90
2022-11-28T19:27:30.187Z,12.73
2022-11-28T19:29:59.785Z,15.65
2022-11-28T19:32:29.366Z,19.10
2022-11-28T19:34:59.111Z,8.77
2022-11-28T19:37:28.778Z,11.40
2022-11-28T19:40:02.289Z,12.48
2022-11-28T19:42:32.579Z,9.02
2022-11-28T19:45:03.068Z,10.05
2022-11-28T19:47:32.688Z,14.00
2022-11-28T19:50:02.315Z,11.82
2022-11-28T19:52:31.947Z,11.07
2022-11-28T19:55:01.524Z,13.07
2022-11-28T19:57:31.238Z,17.38
2022-11-28T20:00:00.798Z,15.65
2022-11-28T20:02:30.465Z,9.57
2022-11-28T20:05:00.877Z,10.82
2022-11-28T20:07:30.747Z,8.88
2022-11-28T20:10:00.346Z,11.82
2022-11-28T20:12:29.997Z,23.73
2022-11-28T20:14:59.532Z,10.85
2022-11-28T20:17:29.375Z,13.55
2022-11-28T20:19:59.110Z,12.50
2022-11-28T20:22:28.718Z,10.07
2022-11-28T20:24:58.364Z,10.00
2022-11-28T20:27:27.922Z,10.75
2022-11-28T20:29:57.497Z,15.27
2022-11-28T20:32:27.060Z,8.57
2022-11-28T20:34:56.804Z,13.20
2022-11-28T20:37:26.373Z,9.05
2022-11-28T20:39:55.994Z,7.85
2022-11-28T20:42:26.198Z,9.82
2022-11-28T20:44:56.518Z,13.93
2022-11-28T20:47:26.270Z,14.95
2022-11-28T20:49:55.798Z,9.35
2022-11-28T20:52:25.448Z,7.72
2022-11-28T20:54:54.954Z,10.32
2022-11-28T20:57:24.609Z,13.05
2022-11-28T20:59:57.298Z,12.63
2022-11-28T21:02:26.929Z,16.27
2022-11-28T21:04:56.492Z,11.48
2022-11-28T21:07:28.420Z,10.75
2022-11-28T21:10:01.580Z,10.75
2022-11-28T21:12:31.172Z,10.00
2022-11-28T21:15:00.974Z,12.90
2022-11-28T21:17:30.579Z,6.63
2022-11-28T21:20:00.133Z,15.32
2022-11-28T21:22:29.689Z,8.30
2022-11-28T21:24:59.388Z,11.50
2022-11-28T21:27:29.065Z,10.32
2022-11-28T21:29:58.700Z,9.48
2022-11-28T21:32:28.699Z,10.85
2022-11-28T21:35:03.872Z,15.68
2022-11-28T21:37:34.243Z,7.32
2022-11-28T21:40:03.884Z,8.98
2022-11-28T21:42:34.672Z,8.63
2022-11-28T21:45:05.101Z,10.68
2022-11-28T21:47:34.727Z,11.77
2022-11-28T21:50:04.342Z,11.25
2022-11-28T21:52:34.368Z,7.20
2022-11-28T21:55:03.908Z,13.88
2022-11-28T21:57:33.555Z,18.33
2022-11-28T22:00:03.927Z,8.43
2022-11-28T22:02:33.549Z,20.88
2022-11-28T22:05:04.012Z,10.45
2022-11-28T22:07:33.696Z,8.35
2022-11-28T22:10:03.473Z,7.88
2022-11-28T22:12:33.288Z,12.02
2022-11-28T22:15:03.017Z,14.82
2022-11-28T22:17:34.377Z,7.25
2022-11-28T22:20:04.038Z,8.77
2022-11-28T22:22:33.734Z,12.98
2022-11-28T22:25:03.365Z,13.77
2022-11-28T22:27:37.146Z,12.63
2022-11-28T22:30:07.830Z,11.10
2022-11-28T22:32:37.440Z,10.77
2022-11-28T22:35:09.228Z,7.85
2022-11-28T22:37:39.088Z,17.52
2022-11-28T22:40:09.314Z,11.27
2022-11-28T22:42:39.264Z,10.52
2022-11-28T22:45:10.491Z,10.15
2022-11-28T22:47:40.414Z,9.60
2022-11-28T22:50:10.766Z,6.97
2022-11-28T22:52:40.663Z,11.48
2022-11-28T22:55:11.118Z,12.80
2022-11-28T22:57:41.038Z,8.50
2022-11-28T23:00:11.847Z,12.25
2022-11-28T23:02:41.813Z,12.38
2022-11-28T23:05:11.977Z,10.25
2022-11-28T23:07:42.096Z,9.75
2022-11-28T23:10:12.218Z,11.52
2022-11-28T23:12:43.698Z,11.80
2022-11-28T23:15:13.622Z,11.80
2022-11-28T23:17:43.518Z,9.68
2022-11-28T23:20:13.669Z,11.52
2022-11-28T23:22:43.626Z,8.57
2022-11-28T23:25:13.630Z,11.45
2022-11-28T23:27:43.595Z,19.90
2022-11-28T23:30:13.865Z,11.55
2022-11-28T23:32:43.816Z,12.93
2022-11-28T23:35:13.826Z,6.90
2022-11-28T23:37:43.786Z,10.05
2022-11-28T23:40:14.200Z,12.98
2022-11-28T23:42:44.648Z,10.48
2022-11-28T23:45:15.387Z,13.95
2022-11-28T23:47:45.030Z,12.38
2022-11-28T23:50:15.576Z,11.32
2022-11-28T23:52:45.173Z,14.02
2022-11-28T23:55:14.747Z,6.43
2022-11-28T23:57:44.535Z,11.13
